createdAt,value
2023-05-08T00:00:27.184Z,0.50
2023-05-08T00:01:27.215Z,0.50
2023-05-08T00:02:27.297Z,0.50
2023-05-08T00:03:27.423Z,0.38
2023-05-08T00:04:27.393Z,0.34
2023-05-08T00:05:27.351Z,0.34
2023-05-08T00:06:27.392Z,0.34
2023-05-08T00:07:27.432Z,0.34
2023-05-08T00:08:27.463Z,0.37
2023-05-08T00:09:27.509Z,0.40
2023-05-08T00:10:27.551Z,0.45
2023-05-08T00:11:27.588Z,0.50
2023-05-08T00:12:27.635Z,0.50
2023-05-08T00:13:27.758Z,0.50
2023-05-08T00:14:27.727Z,0.50
2023-05-08T00:15:27.804Z,0.50
2023-05-08T00:16:27.876Z,0.50
2023-05-08T00:17:27.913Z,0.50
2023-05-08T00:18:27.911Z,0.50
2023-05-08T00:19:27.955Z,0.50
2023-05-08T00:20:28.014Z,0.50
2023-05-08T00:21:28.062Z,0.50
2023-05-08T00:22:28.097Z,0.50
2023-05-08T00:23:28.144Z,0.50
2023-05-08T00:24:28.201Z,0.50
2023-05-08T00:25:28.262Z,0.51
2023-05-08T00:26:28.294Z,0.50
2023-05-08T00:27:28.343Z,0.50
2023-05-08T00:28:28.386Z,0.51
2023-05-08T00:29:28.450Z,0.50
2023-05-08T00:30:28.524Z,0.51
2023-05-08T00:31:28.561Z,0.51
2023-05-08T00:32:28.646Z,0.51
2023-05-08T00:33:28.641Z,0.50
2023-05-08T00:34:28.693Z,0.50
2023-05-08T00:35:28.778Z,0.51
2023-05-08T00:36:28.805Z,0.51
2023-05-08T00:37:28.869Z,0.50
2023-05-08T00:38:28.932Z,0.51
2023-05-08T00:39:28.967Z,0.50
2023-05-08T00:40:29.022Z,0.51
2023-05-08T00:41:29.085Z,0.51
2023-05-08T00:42:29.138Z,0.51
2023-05-08T00:43:29.210Z,0.51
2023-05-08T00:44:29.258Z,0.50
2023-05-08T00:45:29.342Z,0.51
2023-05-08T00:46:29.395Z,0.50
2023-05-08T00:47:29.474Z,0.51
2023-05-08T00:48:29.457Z,0.50
2023-05-08T00:49:29.506Z,0.50
2023-05-08T00:50:29.568Z,0.50
2023-05-08T00:51:29.619Z,0.51
2023-05-08T00:52:29.700Z,0.50
2023-05-08T00:53:29.711Z,0.50
2023-05-08T00:54:29.769Z,0.52
2023-05-08T00:55:29.833Z,0.51
2023-05-08T00:56:29.889Z,0.50
2023-05-08T00:57:29.951Z,0.51
2023-05-08T00:58:30.074Z,0.51
2023-05-08T00:59:30.076Z,0.51
2023-05-08T01:00:30.132Z,0.51
2023-05-08T01:01:30.265Z,0.51
2023-05-08T01:02:30.328Z,0.50
2023-05-08T01:03:30.344Z,0.50
2023-05-08T01:04:30.365Z,0.51
2023-05-08T01:05:30.383Z,0.51
2023-05-08T01:06:30.437Z,0.51
2023-05-08T01:07:30.495Z,0.51
2023-05-08T01:08:30.555Z,0.50
2023-05-08T01:09:30.613Z,0.52
2023-05-08T01:10:30.724Z,0.51
2023-05-08T01:11:30.728Z,0.51
2023-05-08T01:12:30.779Z,0.52
2023-05-08T01:13:30.836Z,0.52
2023-05-08T01:14:30.879Z,0.51
2023-05-08T01:15:30.938Z,0.51
2023-05-08T01:16:31.065Z,0.51
2023-05-08T01:17:31.157Z,0.51
2023-05-08T01:18:31.072Z,0.51
2023-05-08T01:19:31.132Z,0.51
2023-05-08T01:20:31.181Z,0.51
2023-05-08T01:21:31.220Z,0.52
2023-05-08T01:22:31.279Z,0.51
2023-05-08T01:23:31.279Z,0.51
2023-05-08T01:24:31.322Z,0.51
2023-05-08T01:25:31.364Z,0.50
2023-05-08T01:26:31.387Z,0.51
2023-05-08T01:27:31.421Z,0.51
2023-05-08T01:28:31.479Z,0.51
2023-05-08T01:29:31.447Z,0.51
2023-05-08T01:30:31.481Z,0.52
2023-05-08T01:31:31.770Z,0.52
2023-05-08T01:32:31.582Z,0.51
2023-05-08T01:33:31.559Z,0.52
2023-05-08T01:34:31.527Z,0.52
2023-05-08T01:35:31.595Z,0.50
2023-05-08T01:36:31.621Z,0.51
2023-05-08T01:37:31.671Z,0.52
2023-05-08T01:38:31.740Z,0.51
2023-05-08T01:39:31.762Z,0.52
2023-05-08T01:40:31.797Z,0.52
2023-05-08T01:41:31.817Z,0.52
2023-05-08T01:42:31.850Z,0.51
2023-05-08T01:43:31.890Z,0.51
2023-05-08T01:44:31.994Z,0.51
2023-05-08T01:45:32.061Z,0.51
2023-05-08T01:46:32.045Z,0.51
2023-05-08T01:47:32.147Z,0.51
2023-05-08T01:48:32.143Z,0.52
2023-05-08T01:49:32.180Z,0.51
2023-05-08T01:50:32.177Z,0.51
2023-05-08T01:51:32.227Z,0.51
2023-05-08T01:52:32.211Z,0.52
2023-05-08T01:53:32.233Z,0.50
2023-05-08T01:54:32.240Z,0.51
2023-05-08T01:55:32.289Z,0.51
2023-05-08T01:56:32.297Z,0.51
2023-05-08T01:57:32.311Z,0.51
2023-05-08T01:58:32.313Z,0.51
2023-05-08T01:59:32.317Z,0.52
2023-05-08T02:00:32.313Z,0.51
2023-05-08T02:01:32.318Z,0.51
2023-05-08T02:02:32.347Z,0.52
2023-05-08T02:03:32.379Z,0.51
2023-05-08T02:04:32.270Z,0.52
2023-05-08T02:05:32.283Z,0.50
2023-05-08T02:06:32.245Z,0.52
2023-05-08T02:07:32.240Z,0.52
2023-05-08T02:08:32.244Z,0.51
2023-05-08T02:09:32.268Z,0.51
2023-05-08T02:10:32.251Z,0.51
2023-05-08T02:11:32.279Z,0.51
2023-05-08T02:12:32.275Z,0.51
2023-05-08T02:13:32.274Z,0.51
2023-05-08T02:14:33.126Z,0.52
2023-05-08T02:15:32.268Z,0.51
2023-05-08T02:16:32.307Z,0.51
2023-05-08T02:17:32.287Z,0.51
2023-05-08T02:18:32.316Z,0.52
2023-05-08T02:19:32.343Z,0.52
2023-05-08T02:20:32.348Z,0.51
2023-05-08T02:21:32.415Z,0.52
2023-05-08T02:22:32.444Z,0.51
2023-05-08T02:23:32.441Z,0.50
2023-05-08T02:24:32.445Z,0.52
2023-05-08T02:25:32.457Z,0.52
2023-05-08T02:26:32.480Z,0.51
2023-05-08T02:27:32.503Z,0.51
2023-05-08T02:28:32.512Z,0.51
2023-05-08T02:29:32.518Z,0.50
2023-05-08T02:30:32.563Z,0.52
2023-05-08T02:31:32.614Z,0.53
2023-05-08T02:32:32.595Z,0.52
2023-05-08T02:33:32.597Z,0.52
2023-05-08T02:34:32.605Z,0.52
2023-05-08T02:35:32.637Z,0.51
2023-05-08T02:36:32.669Z,0.51
2023-05-08T02:37:32.719Z,0.51
2023-05-08T02:38:32.745Z,0.52
2023-05-08T02:39:32.787Z,0.51
2023-05-08T02:40:32.829Z,0.52
2023-05-08T02:41:32.875Z,0.51
2023-05-08T02:42:32.930Z,0.52
2023-05-08T02:43:32.971Z,0.51
2023-05-08T02:44:33.021Z,0.51
2023-05-08T02:45:33.081Z,0.51
2023-05-08T02:46:33.204Z,0.51
2023-05-08T02:47:33.218Z,0.51
2023-05-08T02:48:33.285Z,0.51
2023-05-08T02:49:33.371Z,0.52
2023-05-08T02:50:33.360Z,0.51
2023-05-08T02:51:33.391Z,0.51
2023-05-08T02:52:33.420Z,0.51
2023-05-08T02:53:33.472Z,0.51
2023-05-08T02:54:33.504Z,0.51
2023-05-08T02:55:33.553Z,0.52
2023-05-08T02:56:33.582Z,0.52
2023-05-08T02:57:33.623Z,0.52
2023-05-08T02:58:33.646Z,0.51
2023-05-08T02:59:33.673Z,0.51
2023-05-08T03:00:33.704Z,0.52
2023-05-08T03:01:33.748Z,0.51
2023-05-08T03:02:33.817Z,0.51
2023-05-08T03:03:33.997Z,0.51
2023-05-08T03:04:33.784Z,0.50
2023-05-08T03:05:33.813Z,0.51
2023-05-08T03:06:33.836Z,0.51
2023-05-08T03:07:33.899Z,0.52
2023-05-08T03:08:33.924Z,0.51
2023-05-08T03:09:33.953Z,0.51
2023-05-08T03:10:33.944Z,0.51
2023-05-08T03:11:33.957Z,0.51
2023-05-08T03:12:33.957Z,0.51
2023-05-08T03:13:33.949Z,0.50
2023-05-08T03:14:33.940Z,0.50
2023-05-08T03:15:34.004Z,0.51
2023-05-08T03:16:33.981Z,0.51
2023-05-08T03:17:34.039Z,0.51
2023-05-08T03:18:34.045Z,0.51
2023-05-08T03:19:34.085Z,0.51
2023-05-08T03:20:34.110Z,0.51
2023-05-08T03:21:34.109Z,0.51
2023-05-08T03:22:34.097Z,0.50
2023-05-08T03:23:34.090Z,0.50
2023-05-08T03:24:34.073Z,0.52
2023-05-08T03:25:34.102Z,0.51
2023-05-08T03:26:34.065Z,0.51
2023-05-08T03:27:34.060Z,0.51
2023-05-08T03:28:34.055Z,0.52
2023-05-08T03:29:34.040Z,0.52
2023-05-08T03:30:34.030Z,0.52
2023-05-08T03:31:34.107Z,0.51
2023-05-08T03:32:34.075Z,0.52
2023-05-08T03:33:34.032Z,0.52
2023-05-08T03:34:34.050Z,0.51
2023-05-08T03:35:34.031Z,0.52
2023-05-08T03:36:34.006Z,0.52
2023-05-08T03:37:33.997Z,0.52
2023-05-08T03:38:33.996Z,0.51
2023-05-08T03:39:33.980Z,0.51
2023-05-08T03:40:33.982Z,0.52
2023-05-08T03:41:34.018Z,0.52
2023-05-08T03:42:34.000Z,0.51
2023-05-08T03:43:33.989Z,0.52
2023-05-08T03:44:34.797Z,0.51
2023-05-08T03:45:33.960Z,0.51
2023-05-08T03:46:33.989Z,0.52
2023-05-08T03:47:33.966Z,0.52
2023-05-08T03:48:33.943Z,0.52
2023-05-08T03:49:33.930Z,0.52
2023-05-08T03:50:33.936Z,0.52
2023-05-08T03:51:33.929Z,0.52
2023-05-08T03:52:33.924Z,0.52
2023-05-08T03:53:33.917Z,0.51
2023-05-08T03:54:33.911Z,0.52
2023-05-08T03:55:33.902Z,0.52
2023-05-08T03:56:33.898Z,0.52
2023-05-08T03:57:33.992Z,0.52
2023-05-08T03:58:33.875Z,0.52
2023-05-08T03:59:33.896Z,0.51
2023-05-08T04:00:33.874Z,0.51
2023-05-08T04:01:33.898Z,0.52
2023-05-08T04:02:33.994Z,0.52
2023-05-08T04:03:33.924Z,0.52
2023-05-08T04:04:33.909Z,0.51
2023-05-08T04:05:34.002Z,0.52
2023-05-08T04:06:45.849Z,0.51
2023-05-08T04:07:33.897Z,0.51
2023-05-08T04:08:33.879Z,0.52
2023-05-08T04:09:33.872Z,0.52
2023-05-08T04:10:33.863Z,0.52
2023-05-08T04:11:33.850Z,0.52
2023-05-08T04:12:33.834Z,0.53
2023-05-08T04:13:33.840Z,0.52
2023-05-08T04:14:33.805Z,0.51
2023-05-08T04:15:33.787Z,0.52
2023-05-08T04:16:33.810Z,0.52
2023-05-08T04:17:33.787Z,0.52
2023-05-08T04:18:33.733Z,0.51
2023-05-08T04:19:33.728Z,0.52
2023-05-08T04:20:33.714Z,0.52
2023-05-08T04:21:33.702Z,0.52
2023-05-08T04:22:33.716Z,0.51
2023-05-08T04:23:33.651Z,0.51
2023-05-08T04:24:33.641Z,0.52
2023-05-08T04:25:33.632Z,0.52
2023-05-08T04:26:33.613Z,0.52
2023-05-08T04:27:33.593Z,0.52
2023-05-08T04:28:33.590Z,0.51
2023-05-08T04:29:33.605Z,0.52
2023-05-08T04:30:33.623Z,0.52
2023-05-08T04:31:33.555Z,0.50
2023-05-08T04:32:33.548Z,0.51
2023-05-08T04:33:33.503Z,0.51
2023-05-08T04:34:33.493Z,0.51
2023-05-08T04:35:33.488Z,0.51
2023-05-08T04:36:33.458Z,0.51
2023-05-08T04:37:33.441Z,0.52
2023-05-08T04:38:33.431Z,0.51
2023-05-08T04:39:33.434Z,0.52
2023-05-08T04:40:33.411Z,0.52
2023-05-08T04:41:33.448Z,0.51
2023-05-08T04:42:33.371Z,0.52
2023-05-08T04:43:33.348Z,0.52
2023-05-08T04:44:33.342Z,0.51
2023-05-08T04:45:33.380Z,0.51
2023-05-08T04:46:33.319Z,0.52
2023-05-08T04:47:33.335Z,0.52
2023-05-08T04:48:33.281Z,0.52
2023-05-08T04:49:33.254Z,0.52
2023-05-08T04:50:33.233Z,0.52
2023-05-08T04:51:33.226Z,0.52
2023-05-08T04:52:33.287Z,0.52
2023-05-08T04:53:33.180Z,0.52
2023-05-08T04:54:33.175Z,0.51
2023-05-08T04:55:33.152Z,0.51
2023-05-08T04:56:33.129Z,0.51
2023-05-08T04:57:33.148Z,0.53
2023-05-08T04:58:33.116Z,0.51
2023-05-08T04:59:33.067Z,0.51
2023-05-08T05:00:33.081Z,0.52
2023-05-08T05:01:33.092Z,0.51
2023-05-08T05:02:33.068Z,0.52
2023-05-08T05:03:33.020Z,0.52
2023-05-08T05:04:32.981Z,0.53
2023-05-08T05:05:32.967Z,0.52
2023-05-08T05:06:32.953Z,0.51
2023-05-08T05:07:32.960Z,0.52
2023-05-08T05:08:32.944Z,0.52
2023-05-08T05:09:32.906Z,0.52
2023-05-08T05:10:32.889Z,0.52
2023-05-08T05:11:32.877Z,0.52
2023-05-08T05:12:32.868Z,0.52
2023-05-08T05:13:32.853Z,0.52
2023-05-08T05:14:32.844Z,0.51
2023-05-08T05:15:32.807Z,0.51
2023-05-08T05:16:32.824Z,0.51
2023-05-08T05:17:32.833Z,0.52
2023-05-08T05:18:32.770Z,0.52
2023-05-08T05:19:32.761Z,0.52
2023-05-08T05:20:32.862Z,0.52
2023-05-08T05:21:32.701Z,0.52
2023-05-08T05:22:32.854Z,0.52
2023-05-08T05:23:32.660Z,0.53
2023-05-08T05:24:32.863Z,0.52
2023-05-08T05:25:32.631Z,0.51
2023-05-08T05:26:33.476Z,0.51
2023-05-08T05:27:32.607Z,0.54
2023-05-08T05:28:32.594Z,0.53
2023-05-08T05:29:32.565Z,0.52
2023-05-08T05:30:32.560Z,0.53
2023-05-08T05:31:32.585Z,0.52
2023-05-08T05:32:32.902Z,0.54
2023-05-08T05:33:32.542Z,0.54
2023-05-08T05:34:32.483Z,0.55
2023-05-08T05:35:32.470Z,0.55
2023-05-08T05:36:32.440Z,0.56
2023-05-08T05:37:32.423Z,0.55
2023-05-08T05:38:32.412Z,0.56
2023-05-08T05:39:32.383Z,0.57
2023-05-08T05:40:32.864Z,0.57
2023-05-08T05:41:32.355Z,0.58
2023-05-08T05:42:32.389Z,0.57
2023-05-08T05:43:32.315Z,0.58
2023-05-08T05:44:32.370Z,0.57
2023-05-08T05:45:33.601Z,0.58
2023-05-08T05:46:32.521Z,0.58
2023-05-08T05:47:32.350Z,0.60
2023-05-08T05:48:33.334Z,0.61
2023-05-08T05:49:32.332Z,0.59
2023-05-08T05:51:32.278Z,0.60
2023-05-08T05:52:32.266Z,0.60
2023-05-08T05:53:35.430Z,0.60
2023-05-08T05:54:32.228Z,0.60
2023-05-08T05:55:39.756Z,0.62
2023-05-08T05:56:32.185Z,0.60
2023-05-08T05:57:32.358Z,0.62
2023-05-08T05:58:39.573Z,0.66
2023-05-08T05:59:32.124Z,0.60
2023-05-08T06:00:32.124Z,0.63
2023-05-08T06:01:32.219Z,0.67
2023-05-08T06:02:32.492Z,0.74
2023-05-08T06:03:32.108Z,0.82
2023-05-08T06:04:39.464Z,0.81
2023-05-08T06:05:35.201Z,0.81
2023-05-08T06:06:35.183Z,0.81
2023-05-08T06:07:32.378Z,0.81
2023-05-08T06:08:35.129Z,0.81
2023-05-08T06:09:32.076Z,0.81
2023-05-08T06:10:31.885Z,0.81
2023-05-08T06:11:31.859Z,0.81
2023-05-08T06:12:31.857Z,0.82
2023-05-08T06:13:31.960Z,0.81
2023-05-08T06:14:32.391Z,0.82
2023-05-08T06:15:31.868Z,0.81
2023-05-08T06:16:31.791Z,0.81
2023-05-08T06:17:31.811Z,0.81
2023-05-08T06:18:31.722Z,0.81
2023-05-08T06:19:31.699Z,0.81
2023-05-08T06:20:32.033Z,0.79
2023-05-08T06:21:31.665Z,0.80
2023-05-08T06:22:31.649Z,0.80
2023-05-08T06:23:31.614Z,0.80
2023-05-08T06:24:31.878Z,0.79
2023-05-08T06:25:31.589Z,0.80
2023-05-08T06:26:31.574Z,0.81
2023-05-08T06:27:31.551Z,0.80
2023-05-08T06:28:31.538Z,0.80
2023-05-08T06:29:31.513Z,0.81
2023-05-08T06:30:31.944Z,0.81
2023-05-08T06:31:31.530Z,0.82
2023-05-08T06:32:31.485Z,0.81
2023-05-08T06:33:31.441Z,0.81
2023-05-08T06:34:31.404Z,0.80
2023-05-08T06:35:31.880Z,0.80
2023-05-08T06:36:31.417Z,0.80
2023-05-08T06:37:31.335Z,0.80
2023-05-08T06:38:31.299Z,0.81
2023-05-08T06:39:31.282Z,0.81
2023-05-08T06:40:32.323Z,0.79
2023-05-08T06:41:31.264Z,0.80
2023-05-08T06:42:31.232Z,0.81
2023-05-08T06:43:31.375Z,0.79
2023-05-08T06:44:31.205Z,0.81
2023-05-08T06:45:31.529Z,0.81
2023-05-08T06:46:31.224Z,0.80
2023-05-08T06:47:31.419Z,0.81
2023-05-08T06:48:31.137Z,0.78
2023-05-08T06:49:31.181Z,0.79
2023-05-08T06:50:31.164Z,0.80
2023-05-08T06:51:31.166Z,0.80
2023-05-08T06:52:31.420Z,0.79
2023-05-08T06:53:31.383Z,0.80
2023-05-08T06:54:31.241Z,0.80
2023-05-08T06:55:31.401Z,0.80
2023-05-08T06:56:31.255Z,0.79
2023-05-08T06:57:31.414Z,0.80
2023-05-08T06:58:31.226Z,0.80
2023-05-08T06:59:31.239Z,0.80
2023-05-08T07:00:31.222Z,0.79
2023-05-08T07:01:31.300Z,0.78
2023-05-08T07:02:31.242Z,0.79
2023-05-08T07:03:31.181Z,0.79
2023-05-08T07:04:32.359Z,0.78
2023-05-08T07:05:31.181Z,0.79
2023-05-08T07:06:31.142Z,0.79
2023-05-08T07:07:31.398Z,0.78
2023-05-08T07:08:31.503Z,0.79
2023-05-08T07:09:31.099Z,0.78
2023-05-08T07:10:31.071Z,0.79
2023-05-08T07:11:31.047Z,0.79
2023-05-08T07:12:31.060Z,0.79
2023-05-08T07:13:31.543Z,0.79
2023-05-08T07:14:32.005Z,0.79
2023-05-08T07:15:31.260Z,0.78
2023-05-08T07:16:31.020Z,0.78
2023-05-08T07:17:31.022Z,0.78
2023-05-08T07:18:31.394Z,0.77
2023-05-08T07:19:30.952Z,0.77
2023-05-08T07:20:30.945Z,0.77
2023-05-08T07:21:30.926Z,0.78
2023-05-08T07:22:30.939Z,0.77
2023-05-08T07:23:31.400Z,0.78
2023-05-08T07:24:30.942Z,0.76
2023-05-08T07:25:46.493Z,0.78
2023-05-08T07:26:30.863Z,0.78
2023-05-08T07:27:34.035Z,0.78
2023-05-08T07:28:30.900Z,0.78
2023-05-08T07:29:30.806Z,0.78
2023-05-08T07:30:32.817Z,0.78
2023-05-08T07:31:30.790Z,0.78
2023-05-08T07:32:30.788Z,0.78
2023-05-08T07:33:30.900Z,0.78
2023-05-08T07:34:30.736Z,0.81
2023-05-08T07:35:30.704Z,0.84
2023-05-08T07:36:33.919Z,0.84
2023-05-08T07:37:30.701Z,0.84
2023-05-08T07:38:46.534Z,0.85
2023-05-08T07:39:31.644Z,0.85
2023-05-08T07:40:30.722Z,0.85
2023-05-08T07:41:38.037Z,0.86
2023-05-08T07:42:30.621Z,0.85
2023-05-08T07:43:31.956Z,0.86
2023-05-08T07:44:47.200Z,0.90
2023-05-08T07:45:30.623Z,0.85
2023-05-08T07:46:30.586Z,0.87
2023-05-08T07:47:30.561Z,0.92
2023-05-08T07:48:30.982Z,1.00
2023-05-08T07:49:30.902Z,1.18
2023-05-08T07:50:30.444Z,1.16
2023-05-08T07:51:31.438Z,1.13
2023-05-08T07:52:30.413Z,1.19
2023-05-08T07:53:37.813Z,1.20
2023-05-08T07:54:30.391Z,1.21
2023-05-08T07:57:30.465Z,1.21
2023-05-08T07:58:33.429Z,1.24
2023-05-08T07:59:30.286Z,1.21
2023-05-08T08:00:30.296Z,1.24
2023-05-08T08:01:30.405Z,1.29
2023-05-08T08:02:30.358Z,1.40
2023-05-08T08:03:30.364Z,1.54
2023-05-08T08:04:30.337Z,1.55
2023-05-08T08:05:30.438Z,1.63
2023-05-08T08:06:30.140Z,1.66
2023-05-08T08:07:30.105Z,1.72
2023-05-08T08:08:30.473Z,1.70
2023-05-08T08:09:30.051Z,1.73
2023-05-08T08:10:31.025Z,1.75
2023-05-08T08:11:29.990Z,1.84
2023-05-08T08:12:29.991Z,1.85
2023-05-08T08:13:30.599Z,1.87
2023-05-08T08:14:29.894Z,1.88
2023-05-08T08:15:29.978Z,1.90
2023-05-08T08:16:29.835Z,1.95
2023-05-08T08:17:29.796Z,1.97
2023-05-08T08:18:29.762Z,2.02
2023-05-08T08:19:29.906Z,2.02
2023-05-08T08:20:29.698Z,2.06
2023-05-08T08:21:29.697Z,2.08
2023-05-08T08:22:29.656Z,2.13
2023-05-08T08:23:36.422Z,2.17
2023-05-08T08:24:29.598Z,2.17
2023-05-08T08:25:29.917Z,2.19
2023-05-08T08:26:29.553Z,2.24
2023-05-08T08:27:29.518Z,2.30
2023-05-08T08:28:29.470Z,2.39
2023-05-08T08:29:30.060Z,2.42
2023-05-08T08:30:29.437Z,2.47
2023-05-08T08:31:29.524Z,2.53
2023-05-08T08:32:29.386Z,2.53
2023-05-08T08:33:29.327Z,2.59
2023-05-08T08:34:29.293Z,2.62
2023-05-08T08:35:29.302Z,2.63
2023-05-08T08:36:29.441Z,2.74
2023-05-08T08:37:29.203Z,2.79
2023-05-08T08:38:29.216Z,2.89
2023-05-08T08:39:29.148Z,2.89
2023-05-08T08:40:36.829Z,2.98
2023-05-08T08:42:36.482Z,3.00
2023-05-08T08:43:32.226Z,3.01
2023-05-08T08:44:29.017Z,3.01
2023-05-08T08:45:32.740Z,3.08
2023-05-08T08:46:28.985Z,3.01
2023-05-08T08:47:28.928Z,3.08
2023-05-08T08:48:28.883Z,3.22
2023-05-08T08:49:28.931Z,3.40
2023-05-08T08:50:28.833Z,3.61
2023-05-08T08:51:28.929Z,3.76
2023-05-08T08:52:28.768Z,3.81
2023-05-08T08:53:28.756Z,3.83
2023-05-08T08:54:28.925Z,3.87
2023-05-08T08:55:28.931Z,3.96
2023-05-08T08:56:28.672Z,3.95
2023-05-08T08:57:28.662Z,3.98
2023-05-08T08:58:28.923Z,4.03
2023-05-08T08:59:28.593Z,4.17
2023-05-08T09:01:00.544Z,4.16
2023-05-08T09:01:28.620Z,4.17
2023-05-08T09:02:28.627Z,4.23
2023-05-08T09:03:28.646Z,4.24
2023-05-08T09:04:28.937Z,4.26
2023-05-08T09:05:28.474Z,4.37
2023-05-08T09:06:28.466Z,4.38
2023-05-08T09:07:28.450Z,4.42
2023-05-08T09:08:28.453Z,4.48
2023-05-08T09:09:28.392Z,4.57
2023-05-08T09:10:28.429Z,4.68
2023-05-08T09:11:28.365Z,4.69
2023-05-08T09:12:28.287Z,4.80
2023-05-08T09:13:28.406Z,4.85
2023-05-08T09:14:28.229Z,4.98
2023-05-08T09:15:28.434Z,5.01
2023-05-08T09:16:28.729Z,5.10
2023-05-08T09:17:28.204Z,5.12
2023-05-08T09:18:28.215Z,5.16
2023-05-08T09:19:28.935Z,5.26
2023-05-08T09:20:28.081Z,5.38
2023-05-08T09:21:28.439Z,5.37
2023-05-08T09:22:28.388Z,5.48
2023-05-08T09:23:28.200Z,5.65
2023-05-08T09:24:30.636Z,5.76
2023-05-08T09:25:28.515Z,6.02
2023-05-08T09:26:28.176Z,6.02
2023-05-08T09:27:28.309Z,5.68
2023-05-08T09:28:28.601Z,5.56
2023-05-08T09:29:28.078Z,5.34
2023-05-08T09:30:28.011Z,5.37
2023-05-08T09:31:30.183Z,5.45
2023-05-08T09:32:28.124Z,5.46
2023-05-08T09:33:28.008Z,5.49
2023-05-08T09:34:27.898Z,5.55
2023-05-08T09:35:27.859Z,5.65
2023-05-08T09:36:27.942Z,5.78
2023-05-08T09:37:27.816Z,5.77
2023-05-08T09:38:27.768Z,5.84
2023-05-08T09:39:27.753Z,6.02
2023-05-08T09:40:27.715Z,6.11
2023-05-08T09:41:27.946Z,5.88
2023-05-08T09:42:27.668Z,6.04
2023-05-08T09:43:28.015Z,6.19
2023-05-08T09:44:27.608Z,6.37
2023-05-08T09:45:27.983Z,6.58
2023-05-08T09:46:27.649Z,6.70
2023-05-08T09:47:28.537Z,6.74
2023-05-08T09:48:28.068Z,6.88
2023-05-08T09:49:27.508Z,6.50
2023-05-08T09:50:27.543Z,6.36
2023-05-08T09:51:27.568Z,6.30
2023-05-08T09:52:27.616Z,6.35
2023-05-08T09:53:27.947Z,6.42
2023-05-08T09:54:27.799Z,6.43
2023-05-08T09:55:27.669Z,6.38
2023-05-08T09:56:27.950Z,6.40
2023-05-08T09:57:27.737Z,6.50
2023-05-08T09:58:27.791Z,6.56
2023-05-08T09:59:27.847Z,6.79
2023-05-08T10:00:27.950Z,6.90
2023-05-08T10:01:27.963Z,6.87
2023-05-08T10:02:27.982Z,6.91
2023-05-08T10:03:27.989Z,6.98
2023-05-08T10:04:28.133Z,7.04
2023-05-08T10:05:28.202Z,7.06
2023-05-08T10:06:28.456Z,7.10
2023-05-08T10:07:28.118Z,7.24
2023-05-08T10:08:28.492Z,7.22
2023-05-08T10:09:35.634Z,7.32
2023-05-08T10:10:28.165Z,7.34
2023-05-08T10:11:28.137Z,7.42
2023-05-08T10:12:28.095Z,7.46
2023-05-08T10:13:28.555Z,7.64
2023-05-08T10:14:28.030Z,7.85
2023-05-08T10:15:28.002Z,7.93
2023-05-08T10:16:28.021Z,8.02
2023-05-08T10:17:27.988Z,8.61
2023-05-08T10:18:27.962Z,8.20
2023-05-08T10:19:27.935Z,8.05
2023-05-08T10:20:27.985Z,8.28
2023-05-08T10:21:27.975Z,7.74
2023-05-08T10:22:27.814Z,7.95
2023-05-08T10:23:30.984Z,7.90
2023-05-08T10:24:27.758Z,7.91
2023-05-08T10:25:27.764Z,7.92
2023-05-08T10:26:28.002Z,7.78
2023-05-08T10:27:27.722Z,7.60
2023-05-08T10:28:27.666Z,7.56
2023-05-08T10:29:27.671Z,7.37
2023-05-08T10:30:27.609Z,7.39
2023-05-08T10:31:29.053Z,7.29
2023-05-08T10:32:27.984Z,7.36
2023-05-08T10:33:29.004Z,7.24
2023-05-08T10:34:27.581Z,7.25
2023-05-08T10:35:27.555Z,7.25
2023-05-08T10:36:30.331Z,7.09
2023-05-08T10:37:27.514Z,7.25
2023-05-08T10:38:27.987Z,7.20
2023-05-08T10:39:27.451Z,7.11
2023-05-08T10:40:27.460Z,6.87
2023-05-08T10:41:27.403Z,6.96
2023-05-08T10:42:27.380Z,6.90
2023-05-08T10:43:27.362Z,6.80
2023-05-08T10:44:28.338Z,6.80
2023-05-08T10:45:27.295Z,6.77
2023-05-08T10:46:27.538Z,6.68
2023-05-08T10:47:27.309Z,6.59
2023-05-08T10:48:27.226Z,6.60
2023-05-08T10:49:27.183Z,6.46
2023-05-08T10:50:27.162Z,6.46
2023-05-08T10:51:28.005Z,6.43
2023-05-08T10:52:27.513Z,6.40
2023-05-08T10:53:27.103Z,6.36
2023-05-08T10:54:27.998Z,6.35
2023-05-08T10:55:27.059Z,6.49
2023-05-08T10:56:27.074Z,6.46
2023-05-08T10:57:27.474Z,6.28
2023-05-08T10:58:27.016Z,6.34
2023-05-08T10:59:27.526Z,6.23
2023-05-08T11:00:27.449Z,6.24
2023-05-08T11:01:27.131Z,6.54
2023-05-08T11:02:26.973Z,6.85
2023-05-08T11:03:31.958Z,6.83
2023-05-08T11:04:27.049Z,6.69
2023-05-08T11:05:27.850Z,6.48
2023-05-08T11:06:26.973Z,6.55
2023-05-08T11:07:26.806Z,6.74
2023-05-08T11:08:26.830Z,6.85
2023-05-08T11:09:26.776Z,6.70
2023-05-08T11:10:26.982Z,6.72
2023-05-08T11:11:26.791Z,6.67
2023-05-08T11:12:26.704Z,6.62
2023-05-08T11:13:26.743Z,6.55
2023-05-08T11:14:26.682Z,6.42
2023-05-08T11:15:26.986Z,6.40
2023-05-08T11:16:26.984Z,6.32
2023-05-08T11:17:26.616Z,6.36
2023-05-08T11:18:32.484Z,6.25
2023-05-08T11:19:26.552Z,6.27
2023-05-08T11:20:26.501Z,6.32
2023-05-08T11:21:26.511Z,6.33
2023-05-08T11:22:26.452Z,6.36
2023-05-08T11:23:26.967Z,6.26
2023-05-08T11:24:26.448Z,6.30
2023-05-08T11:25:26.382Z,6.14
2023-05-08T11:26:26.352Z,6.16
2023-05-08T11:27:26.331Z,6.09
2023-05-08T11:28:26.503Z,6.00
2023-05-08T11:29:26.500Z,5.98
2023-05-08T11:30:26.350Z,5.96
2023-05-08T11:31:26.297Z,6.00
2023-05-08T11:32:33.647Z,5.89
2023-05-08T11:33:26.492Z,5.91
2023-05-08T11:34:26.151Z,5.94
2023-05-08T11:35:26.125Z,5.95
2023-05-08T11:36:26.688Z,5.91
2023-05-08T11:37:26.540Z,5.81
2023-05-08T11:38:26.092Z,5.71
2023-05-08T11:39:26.017Z,5.76
2023-05-08T11:40:26.102Z,5.65
2023-05-08T11:41:33.363Z,5.60
2023-05-08T11:42:26.016Z,5.62
2023-05-08T11:43:25.941Z,5.65
2023-05-08T11:44:25.896Z,5.63
2023-05-08T11:45:25.865Z,5.58
2023-05-08T11:46:26.071Z,5.38
2023-05-08T11:47:25.864Z,5.44
2023-05-08T11:48:25.810Z,5.38
2023-05-08T11:49:29.166Z,5.37
2023-05-08T11:50:25.781Z,5.38
2023-05-08T11:51:25.757Z,5.38
2023-05-08T11:52:26.050Z,5.29
2023-05-08T11:53:25.702Z,5.20
2023-05-08T11:54:29.197Z,5.19
2023-05-08T11:55:25.630Z,5.37
2023-05-08T11:56:25.616Z,5.23
2023-05-08T11:57:28.787Z,5.14
2023-05-08T11:58:26.552Z,5.37
2023-05-08T11:59:26.015Z,5.18
2023-05-08T12:00:25.520Z,5.15
2023-05-08T12:01:32.924Z,5.00
2023-05-08T12:02:25.504Z,5.37
2023-05-08T12:03:41.178Z,5.30
2023-05-08T12:04:25.547Z,5.38
2023-05-08T12:05:25.370Z,5.37
2023-05-08T12:06:26.343Z,5.12
2023-05-08T12:07:25.519Z,5.08
2023-05-08T12:08:25.290Z,4.92
2023-05-08T12:09:25.261Z,4.86
2023-05-08T12:10:25.249Z,4.78
2023-05-08T12:11:26.211Z,4.75
2023-05-08T12:12:25.214Z,4.72
2023-05-08T12:13:25.292Z,4.70
2023-05-08T12:14:25.185Z,4.60
2023-05-08T12:15:25.103Z,4.54
2023-05-08T12:16:25.116Z,4.51
2023-05-08T12:17:25.683Z,4.43
2023-05-08T12:18:25.387Z,4.37
2023-05-08T12:19:25.601Z,4.34
2023-05-08T12:20:25.590Z,4.33
2023-05-08T12:21:25.245Z,4.33
2023-05-08T12:22:25.438Z,4.28
2023-05-08T12:23:25.381Z,4.20
2023-05-08T12:24:25.400Z,4.26
2023-05-08T12:25:26.611Z,4.24
2023-05-08T12:26:25.204Z,4.21
2023-05-08T12:27:25.466Z,4.21
2023-05-08T12:28:25.269Z,4.22
2023-05-08T12:29:26.133Z,4.21
2023-05-08T12:30:25.059Z,4.27
2023-05-08T12:31:25.176Z,4.13
2023-05-08T12:32:27.116Z,4.12
2023-05-08T12:33:25.065Z,4.12
2023-05-08T12:34:25.042Z,4.12
2023-05-08T12:35:24.991Z,4.11
2023-05-08T12:36:24.935Z,4.12
2023-05-08T12:37:25.452Z,4.13
2023-05-08T12:38:24.820Z,4.06
2023-05-08T12:39:25.016Z,4.02
2023-05-08T12:40:25.064Z,4.04
2023-05-08T12:41:24.725Z,4.01
2023-05-08T12:42:24.936Z,3.95
2023-05-08T12:43:24.993Z,4.02
2023-05-08T12:44:25.004Z,3.99
2023-05-08T12:45:24.951Z,3.97
2023-05-08T12:46:24.339Z,3.86
2023-05-08T12:47:24.287Z,3.88
2023-05-08T12:48:24.262Z,3.91
2023-05-08T12:49:24.258Z,3.88
2023-05-08T12:50:24.515Z,3.86
2023-05-08T12:51:24.171Z,3.84
2023-05-08T12:52:24.140Z,3.83
2023-05-08T12:53:24.111Z,3.82
2023-05-08T12:54:24.084Z,3.81
2023-05-08T12:55:24.066Z,3.78
2023-05-08T12:56:24.526Z,3.75
2023-05-08T12:57:23.998Z,3.74
2023-05-08T12:58:24.003Z,3.74
2023-05-08T12:59:23.960Z,3.73
2023-05-08T13:00:24.036Z,3.70
2023-05-08T13:01:24.051Z,3.68
2023-05-08T13:02:24.228Z,3.71
2023-05-08T13:03:23.926Z,3.64
2023-05-08T13:04:24.088Z,3.64
2023-05-08T13:05:23.762Z,3.55
2023-05-08T13:06:23.753Z,3.61
2023-05-08T13:07:23.720Z,3.62
2023-05-08T13:08:23.692Z,3.58
2023-05-08T13:09:24.017Z,3.59
2023-05-08T13:10:25.443Z,3.52
2023-05-08T13:11:23.606Z,3.52
2023-05-08T13:12:23.584Z,3.53
2023-05-08T13:13:23.636Z,3.53
2023-05-08T13:14:23.524Z,3.54
2023-05-08T13:15:23.492Z,3.58
2023-05-08T13:16:23.725Z,3.46
2023-05-08T13:17:24.096Z,3.52
2023-05-08T13:18:23.433Z,3.49
2023-05-08T13:19:23.541Z,3.46
2023-05-08T13:20:23.358Z,3.43
2023-05-08T13:21:25.082Z,3.33
2023-05-08T13:22:23.525Z,3.35